Météo des aéroports (METAR) proches de Ticheville

 

LFRG - St Gatien, France
Distance from station: N 52km
Mise à jour: 23/02/2019 13:00
clair
clair
 Wind from SE
Vent: SE 15 km/h
Température: 14°C
Point de rosée: 5°C
Humidité: 55%
Baromètre: 1033 hPa
Résumé: clair
Visibility: greater than 10 km
2019/02/23 12:00 LFRG 231200Z AUTO 13008KT 080V170 CAVOK 14/05 Q1033 NOSIG
LFRK - Caen/Carpiquet(A, France
Distance from station: ONO 60km
Mise à jour: 23/02/2019 13:30
clair
clair
 Wind from SE
Vent: SE 9 km/h
Température: 15°C
Point de rosée: 8°C
Humidité: 63%
Baromètre: 1032 hPa
Résumé: clair
Visibility: greater than 10 km
2019/02/23 12:30 LFRK 231230Z AUTO 14005KT 110V170 CAVOK 15/08 Q1032 NOSIG
 
LFOH - Le Havre/Octevil, France
Distance from station: NNO 69km
Mise à jour: 23/02/2019 13:30
partiellement nuageux
partiellement nuageux
 Wind from SE
Vent: SE 19 km/h
Température: 14°C
Point de rosée: 5°C
Humidité: 55%
Baromètre: 1032 hPa
Clouds: partiellement nuageux
Visibility: 8 km
2019/02/23 12:30 LFOH 231230Z AUTO 13010KT 8000 NSC 14/05 Q1032 NOSIG
LFOE - Evreux/Fauville, France
Distance from station: E 70km
Mise à jour: 23/02/2019 13:30
clair
clair
 Wind from varies
Vent: varies 4 km/h
Température: 14°C
Point de rosée: 4°C
Humidité: 51%
Baromètre: 1033 hPa
Résumé: clair
Visibility: greater than 10 km
2019/02/23 12:30 LFOE 231230Z AUTO VRB02KT CAVOK 14/04 Q1033
 
LFOP - Rouen/Boos (aut), France
Distance from station: NE 83km
Mise à jour: 23/02/2019 13:30
clair
clair
 Wind from E
Vent: E 7 km/h
Température: 14°C
Point de rosée: 5°C
Humidité: 55%
Baromètre: 1033 hPa
Résumé: clair
Visibility: greater than 10 km
2019/02/23 12:30 LFOP 231230Z AUTO 10004KT 050V170 CAVOK 14/05 Q1033 NOSIG
LFRM - Le Mans/Arnage(A, France
Distance from station: S 107km
Mise à jour: 23/02/2019 13:30
clair
clair
 Wind from ENE
Vent: ENE 9 km/h
Température: 16°C
Point de rosée: 4°C
Humidité: 45%
Baromètre: 1031 hPa
Résumé: clair
Visibility: greater than 10 km
2019/02/23 12:30 LFRM 231230Z AUTO 06005KT 010V100 CAVOK 16/04 Q1031 NOSIG